createdAt,value
2022-08-03T00:01:37.081Z,63.98
2022-08-03T00:04:39.933Z,64.13
2022-08-03T00:07:42.499Z,64.65
2022-08-03T00:10:45.484Z,65.54
2022-08-03T00:13:48.006Z,66.20
2022-08-03T00:16:50.737Z,66.54
2022-08-03T00:19:53.346Z,67.02
2022-08-03T00:22:56.215Z,67.90
2022-08-03T00:25:58.691Z,67.52
2022-08-03T00:29:01.632Z,66.92
2022-08-03T00:32:04.272Z,67.02
2022-08-03T00:35:09.852Z,67.20
2022-08-03T00:38:15.476Z,67.46
2022-08-03T00:41:18.268Z,67.67
2022-08-03T00:44:20.729Z,68.25
2022-08-03T00:47:23.526Z,68.11
2022-08-03T00:50:28.884Z,68.04
2022-08-03T00:53:32.473Z,68.36
2022-08-03T00:56:35.970Z,69.26
2022-08-03T00:59:39.706Z,69.76
2022-08-03T01:02:42.394Z,69.61
2022-08-03T01:06:17.470Z,70.23
2022-08-03T01:09:27.123Z,70.64
2022-08-03T01:12:46.202Z,71.46
2022-08-03T01:15:48.694Z,72.67
2022-08-03T01:19:08.692Z,73.34
2022-08-03T01:22:23.570Z,74.49
2022-08-03T01:25:48.357Z,73.97
2022-08-03T01:29:37.200Z,74.17
2022-08-03T01:33:01.640Z,74.51
2022-08-03T01:36:13.783Z,74.90
2022-08-03T01:39:19.317Z,75.63
2022-08-03T01:42:24.069Z,75.51
2022-08-03T01:45:28.410Z,75.87
2022-08-03T01:48:39.701Z,76.05
2022-08-03T01:51:57.680Z,76.30
2022-08-03T01:55:08.368Z,76.65
2022-08-03T01:58:15.055Z,77.00
2022-08-03T02:01:21.988Z,77.35
2022-08-03T02:04:26.333Z,76.59
2022-08-03T02:07:30.564Z,75.84
2022-08-03T02:10:36.295Z,76.77
2022-08-03T02:13:40.395Z,76.70
2022-08-03T02:16:45.986Z,76.73
2022-08-03T02:19:50.645Z,76.83
2022-08-03T02:22:54.046Z,77.43
2022-08-03T02:26:01.888Z,78.34
2022-08-03T02:29:13.855Z,78.31
2022-08-03T02:32:20.478Z,78.48
2022-08-03T02:35:26.334Z,78.62
2022-08-03T02:38:34.454Z,78.99
2022-08-03T02:41:44.304Z,79.61
2022-08-03T02:44:50.396Z,80.80
2022-08-03T02:47:58.242Z,80.48
2022-08-03T02:51:04.026Z,80.63
2022-08-03T02:54:09.537Z,81.72
2022-08-03T02:57:14.205Z,81.78
2022-08-03T03:00:28.170Z,82.41
2022-08-03T03:03:35.288Z,82.47
2022-08-03T03:06:48.421Z,83.36
2022-08-03T03:09:52.224Z,84.30
2022-08-03T03:12:58.696Z,85.59
2022-08-03T03:16:03.825Z,86.01
2022-08-03T03:19:08.752Z,86.75
2022-08-03T03:22:12.633Z,87.83
2022-08-03T03:25:16.670Z,88.35
2022-08-03T03:28:19.651Z,88.55
2022-08-03T03:31:22.986Z,88.77
2022-08-03T03:34:25.746Z,88.30
2022-08-03T03:37:28.500Z,87.46
2022-08-03T03:40:31.781Z,88.42
2022-08-03T03:43:34.683Z,88.21
2022-08-03T03:46:38.880Z,89.54
2022-08-03T03:49:42.863Z,88.97
2022-08-03T03:52:45.422Z,87.97
2022-08-03T03:55:57.812Z,87.45
2022-08-03T03:59:04.811Z,86.79
2022-08-03T04:02:09.255Z,86.49
2022-08-03T04:05:31.615Z,89.62
2022-08-03T04:08:52.796Z,85.32
2022-08-03T04:12:01.035Z,86.60
2022-08-03T04:15:04.585Z,85.62
2022-08-03T04:18:12.001Z,85.77
2022-08-03T04:21:17.964Z,85.54
2022-08-03T04:24:22.138Z,85.98
2022-08-03T04:27:37.256Z,84.25
2022-08-03T04:30:47.532Z,84.34
2022-08-03T04:33:52.837Z,85.70
2022-08-03T04:36:59.790Z,84.88
2022-08-03T04:40:06.061Z,86.69
2022-08-03T04:43:11.428Z,86.78
2022-08-03T04:46:15.351Z,87.95
2022-08-03T04:49:20.095Z,87.22
2022-08-03T04:52:22.815Z,87.83
2022-08-03T04:55:27.584Z,88.50
2022-08-03T04:58:30.269Z,87.91
2022-08-03T05:01:33.093Z,88.12
2022-08-03T05:04:35.783Z,87.71
2022-08-03T05:07:38.622Z,86.84
2022-08-03T05:10:41.644Z,86.41
2022-08-03T05:13:45.452Z,85.00
2022-08-03T05:16:47.934Z,84.52
2022-08-03T05:19:50.907Z,83.93
2022-08-03T05:22:53.545Z,83.00
2022-08-03T05:25:56.766Z,81.85
2022-08-03T05:28:59.658Z,82.46
2022-08-03T05:32:08.090Z,82.30
2022-08-03T05:35:55.835Z,81.53
2022-08-03T05:38:34.759Z,81.18
2022-08-03T05:41:37.986Z,79.92
2022-08-03T05:44:42.164Z,79.37
2022-08-03T05:47:45.475Z,79.45
2022-08-03T05:50:48.475Z,80.55
2022-08-03T05:53:50.931Z,79.15
2022-08-03T05:56:53.649Z,78.18
2022-08-03T05:59:58.785Z,77.29
2022-08-03T06:03:02.453Z,77.06
2022-08-03T06:06:05.444Z,77.19
2022-08-03T06:09:08.031Z,74.92
2022-08-03T06:12:14.058Z,73.63
2022-08-03T06:15:18.763Z,73.18
2022-08-03T06:18:21.561Z,72.77
2022-08-03T06:21:24.044Z,71.77
2022-08-03T06:24:30.152Z,71.04
2022-08-03T06:27:37.350Z,71.02
2022-08-03T06:30:41.717Z,71.11
2022-08-03T06:34:31.297Z,69.80
2022-08-03T06:37:07.113Z,68.94
2022-08-03T06:40:13.977Z,69.02
2022-08-03T06:43:17.096Z,67.20
2022-08-03T06:46:20.418Z,67.38
2022-08-03T06:49:23.258Z,66.05
2022-08-03T06:52:37.984Z,66.05
2022-08-03T06:55:42.313Z,63.54
2022-08-03T06:58:46.971Z,62.00
2022-08-03T07:01:49.981Z,59.43
2022-08-03T07:04:52.588Z,58.38
2022-08-03T07:07:57.220Z,59.54
2022-08-03T07:10:59.951Z,57.68
2022-08-03T07:14:02.858Z,57.82
2022-08-03T07:17:11.913Z,58.36
2022-08-03T07:20:17.378Z,56.67
2022-08-03T07:23:19.865Z,55.76
2022-08-03T07:26:22.707Z,53.86
2022-08-03T07:29:25.251Z,52.84
2022-08-03T07:32:31.307Z,50.06
2022-08-03T07:35:34.084Z,49.56
2022-08-03T07:38:37.176Z,50.08
2022-08-03T07:41:39.779Z,46.61
2022-08-03T07:44:44.764Z,44.20
2022-08-03T07:47:53.619Z,43.08
2022-08-03T07:50:57.171Z,41.54
2022-08-03T07:54:00.891Z,40.90
2022-08-03T07:57:03.969Z,41.42
2022-08-03T08:00:12.584Z,43.74
2022-08-03T08:03:15.982Z,41.34
2022-08-03T08:06:18.545Z,41.38
2022-08-03T08:09:21.411Z,38.82
2022-08-03T08:12:23.963Z,37.74
2022-08-03T08:15:26.804Z,35.55
2022-08-03T08:18:32.111Z,36.64
2022-08-03T08:21:53.199Z,36.88
2022-08-03T08:25:04.464Z,34.29
2022-08-03T08:28:29.133Z,40.64
2022-08-03T08:31:30.192Z,38.84
2022-08-03T08:34:33.047Z,37.05
2022-08-03T08:37:35.797Z,36.57
2022-08-03T08:40:40.485Z,33.79
2022-08-03T08:43:43.789Z,32.28
2022-08-03T08:46:48.061Z,31.56
2022-08-03T08:50:08.920Z,29.66
2022-08-03T08:53:18.158Z,30.17
2022-08-03T08:56:25.833Z,32.27
2022-08-03T08:59:48.275Z,34.80
2022-08-03T09:02:53.063Z,30.37
2022-08-03T09:05:56.494Z,32.03
2022-08-03T09:08:59.326Z,32.79
2022-08-03T09:12:27.179Z,28.69
2022-08-03T09:15:28.335Z,28.75
2022-08-03T09:18:32.580Z,29.36
2022-08-03T09:21:35.762Z,27.78
2022-08-03T09:25:21.684Z,26.41
2022-08-03T09:29:01.491Z,28.71
2022-08-03T09:31:46.888Z,28.20
2022-08-03T09:34:55.337Z,27.06
2022-08-03T09:38:26.283Z,29.26
2022-08-03T09:41:29.625Z,32.03
2022-08-03T09:44:43.532Z,28.89
2022-08-03T09:47:46.083Z,27.50
2022-08-03T09:50:56.967Z,25.08
2022-08-03T09:54:04.964Z,25.54
2022-08-03T09:57:21.229Z,26.54
2022-08-03T10:00:24.839Z,27.30
2022-08-03T10:03:30.339Z,25.26
2022-08-03T10:06:33.453Z,30.18
2022-08-03T10:09:37.939Z,28.44
2022-08-03T10:12:41.878Z,27.74
2022-08-03T10:16:22.022Z,24.54
2022-08-03T10:19:09.792Z,23.49
2022-08-03T10:22:27.516Z,22.27
2022-08-03T10:25:32.918Z,22.62
2022-08-03T10:28:45.066Z,21.99
2022-08-03T10:31:54.522Z,23.05
2022-08-03T10:35:18.942Z,21.62
2022-08-03T10:38:32.947Z,20.57
2022-08-03T10:41:42.633Z,21.48
2022-08-03T10:44:45.344Z,19.91
2022-08-03T10:47:49.843Z,20.78
2022-08-03T10:50:53.212Z,19.63
2022-08-03T10:53:55.972Z,18.23
2022-08-03T10:57:19.181Z,19.54
2022-08-03T11:00:49.859Z,19.18
2022-08-03T11:03:52.437Z,19.49
2022-08-03T11:07:18.355Z,19.52
2022-08-03T11:10:31.850Z,17.92
2022-08-03T11:13:34.804Z,18.77
2022-08-03T11:16:41.605Z,15.88
2022-08-03T11:19:57.023Z,17.04
2022-08-03T11:23:01.764Z,16.43
2022-08-03T11:26:19.162Z,19.15
2022-08-03T11:29:30.242Z,19.47
2022-08-03T11:32:48.486Z,20.06
2022-08-03T11:36:02.054Z,17.58
2022-08-03T11:39:16.852Z,18.16
2022-08-03T11:42:23.097Z,18.39
2022-08-03T11:45:26.061Z,15.41
2022-08-03T11:48:34.932Z,15.01
2022-08-03T11:51:39.878Z,16.42
2022-08-03T11:54:43.350Z,15.82
2022-08-03T11:59:18.813Z,14.73
2022-08-03T12:01:11.481Z,15.60
2022-08-03T12:04:16.258Z,14.07
2022-08-03T12:07:25.067Z,13.53
2022-08-03T12:10:48.761Z,13.73
2022-08-03T12:14:44.309Z,13.08
2022-08-03T12:17:14.257Z,13.10
2022-08-03T12:20:34.793Z,14.20
2022-08-03T12:23:38.782Z,16.01
2022-08-03T12:26:58.474Z,17.78
2022-08-03T12:30:04.680Z,19.76
2022-08-03T12:33:17.556Z,18.46
2022-08-03T12:36:22.013Z,16.37
2022-08-03T12:39:27.550Z,14.48
2022-08-03T12:42:35.927Z,13.52
2022-08-03T12:45:38.783Z,15.10
2022-08-03T12:49:11.406Z,20.62
2022-08-03T12:52:14.017Z,20.22
2022-08-03T12:55:20.727Z,17.33
2022-08-03T12:58:36.445Z,16.36
2022-08-03T13:01:55.313Z,16.57
2022-08-03T13:05:00.176Z,15.93
2022-08-03T13:08:03.224Z,15.11
2022-08-03T13:11:19.125Z,16.26
2022-08-03T13:14:23.676Z,15.29
2022-08-03T13:17:27.490Z,12.90
2022-08-03T13:20:30.674Z,13.15
2022-08-03T13:23:33.933Z,10.99
2022-08-03T13:26:36.728Z,11.22
2022-08-03T13:29:39.404Z,12.79
2022-08-03T13:32:42.704Z,13.56
2022-08-03T13:35:45.217Z,12.97
2022-08-03T13:38:48.122Z,11.83
2022-08-03T13:41:50.774Z,11.08
2022-08-03T13:44:53.656Z,12.76
2022-08-03T13:47:56.268Z,11.79
2022-08-03T13:51:02.561Z,12.73
2022-08-03T13:54:08.366Z,12.55
2022-08-03T13:58:04.544Z,12.45
2022-08-03T14:00:34.739Z,13.81
2022-08-03T14:03:37.609Z,15.02
2022-08-03T14:06:40.184Z,13.37
2022-08-03T14:09:48.712Z,12.75
2022-08-03T14:12:51.296Z,11.12
2022-08-03T14:15:55.619Z,11.45
2022-08-03T14:18:59.081Z,11.92
2022-08-03T14:22:06.855Z,12.65
2022-08-03T14:25:09.964Z,11.82
2022-08-03T14:28:13.600Z,11.50
2022-08-03T14:32:10.943Z,12.92
2022-08-03T14:34:38.973Z,14.48
2022-08-03T14:37:41.605Z,19.74
2022-08-03T14:40:50.996Z,21.92
2022-08-03T14:44:01.707Z,22.06
2022-08-03T14:47:05.202Z,21.72
2022-08-03T14:50:38.635Z,22.53
2022-08-03T14:53:31.415Z,23.98
2022-08-03T14:56:33.955Z,24.74
2022-08-03T14:59:55.826Z,24.47
2022-08-03T15:02:59.337Z,24.71
2022-08-03T15:06:02.314Z,24.60
2022-08-03T15:09:21.737Z,22.96
2022-08-03T15:12:26.429Z,21.11
2022-08-03T15:15:29.285Z,19.89
2022-08-03T15:18:32.361Z,23.32
2022-08-03T15:21:47.257Z,24.90
2022-08-03T15:24:50.473Z,25.62
2022-08-03T15:28:03.320Z,25.12
2022-08-03T15:31:07.579Z,23.39
2022-08-03T15:34:11.802Z,21.57
2022-08-03T15:37:23.237Z,22.57
2022-08-03T15:40:25.971Z,24.21
2022-08-03T15:43:28.790Z,25.75
2022-08-03T15:46:31.342Z,26.27
2022-08-03T15:49:35.449Z,27.10
2022-08-03T15:52:38.282Z,27.42
2022-08-03T15:55:41.279Z,27.60
2022-08-03T15:59:09.356Z,27.98
2022-08-03T16:02:06.662Z,28.29
2022-08-03T16:05:27.788Z,29.23
2022-08-03T16:08:48.369Z,29.20
2022-08-03T16:11:51.165Z,27.95
2022-08-03T16:14:54.000Z,27.69
2022-08-03T16:17:57.327Z,28.15
2022-08-03T16:21:00.658Z,26.80
2022-08-03T16:24:03.790Z,26.27
2022-08-03T16:27:37.420Z,26.63
2022-08-03T16:30:33.831Z,27.24
2022-08-03T16:33:36.551Z,28.04
2022-08-03T16:36:39.349Z,27.67
2022-08-03T16:39:42.076Z,25.51
2022-08-03T16:42:53.817Z,22.77
2022-08-03T16:45:56.878Z,24.02
2022-08-03T16:48:59.980Z,24.80
2022-08-03T16:52:02.588Z,26.20
2022-08-03T16:55:06.709Z,28.50
2022-08-03T16:58:12.574Z,29.61
2022-08-03T17:01:21.931Z,30.53
2022-08-03T17:04:28.229Z,31.67
2022-08-03T17:07:32.177Z,32.40
2022-08-03T17:10:38.106Z,32.69
2022-08-03T17:13:41.749Z,32.79
2022-08-03T17:16:52.571Z,33.79
2022-08-03T17:19:58.459Z,33.83
2022-08-03T17:23:34.973Z,33.59
2022-08-03T17:26:44.800Z,34.02
2022-08-03T17:29:50.229Z,34.39
2022-08-03T17:32:57.464Z,34.44
2022-08-03T17:36:00.867Z,34.72
2022-08-03T17:39:06.539Z,35.65
2022-08-03T17:42:30.422Z,35.17
2022-08-03T17:45:52.077Z,35.47
2022-08-03T17:48:55.493Z,35.88
2022-08-03T17:52:17.559Z,35.93
2022-08-03T17:55:56.382Z,36.38
2022-08-03T17:58:57.978Z,37.25
2022-08-03T18:02:47.740Z,37.52
2022-08-03T18:06:12.869Z,37.29
2022-08-03T18:10:04.239Z,37.73
2022-08-03T18:12:47.403Z,38.64
2022-08-03T18:16:01.777Z,38.56
2022-08-03T18:19:09.231Z,38.45
2022-08-03T18:22:13.536Z,38.89
2022-08-03T18:25:20.952Z,39.14
2022-08-03T18:28:43.273Z,39.51
2022-08-03T18:32:03.607Z,40.07
2022-08-03T18:35:07.775Z,39.83
2022-08-03T18:38:32.352Z,41.36
2022-08-03T18:41:36.535Z,42.60
2022-08-03T18:44:53.238Z,41.80
2022-08-03T18:48:27.124Z,41.46
2022-08-03T18:51:43.319Z,42.44
2022-08-03T18:55:21.438Z,41.95
2022-08-03T18:58:52.266Z,43.54
2022-08-03T19:05:24.776Z,43.39
2022-08-03T19:08:57.712Z,43.36
2022-08-03T19:12:30.840Z,43.42
2022-08-03T19:15:51.046Z,44.17
2022-08-03T19:18:56.936Z,44.89
2022-08-03T19:22:00.706Z,44.96
2022-08-03T19:25:05.061Z,45.05
2022-08-03T19:28:08.789Z,45.60
2022-08-03T19:31:13.770Z,44.87
2022-08-03T19:34:18.413Z,44.56
2022-08-03T19:37:22.182Z,45.37
2022-08-03T19:40:27.321Z,45.10
2022-08-03T19:43:53.210Z,45.73
2022-08-03T19:47:10.064Z,45.64
2022-08-03T19:50:14.099Z,46.21
2022-08-03T19:53:17.938Z,46.37
2022-08-03T19:56:25.049Z,46.34
2022-08-03T19:59:28.803Z,46.70
2022-08-03T20:02:33.688Z,47.08
2022-08-03T20:05:45.003Z,47.85
2022-08-03T20:08:55.500Z,48.19
2022-08-03T20:12:02.049Z,48.27
2022-08-03T20:15:06.004Z,48.04
2022-08-03T20:18:16.892Z,47.98
2022-08-03T20:21:24.598Z,47.83
2022-08-03T20:24:31.832Z,48.12
2022-08-03T20:31:07.242Z,47.87
2022-08-03T20:34:10.225Z,47.90
2022-08-03T20:37:13.101Z,48.96
2022-08-03T20:40:15.824Z,46.75
2022-08-03T20:43:19.935Z,45.56
2022-08-03T20:46:35.294Z,45.95
2022-08-03T20:49:46.244Z,46.33
2022-08-03T20:52:50.564Z,46.44
2022-08-03T20:56:02.154Z,46.10
2022-08-03T20:59:07.372Z,45.55
2022-08-03T21:02:30.112Z,46.17
2022-08-03T21:05:51.007Z,47.40
2022-08-03T21:09:04.689Z,47.24
2022-08-03T21:12:11.902Z,47.76
2022-08-03T21:13:06.881Z,48.04
2022-08-03T21:13:11.242Z,42.97
2022-08-03T21:15:59.606Z,48.33
2022-08-03T21:18:46.511Z,48.88
2022-08-03T21:21:50.587Z,49.02
2022-08-03T21:24:56.919Z,49.23
2022-08-03T21:28:00.883Z,49.39
2022-08-03T21:31:04.199Z,49.88
2022-08-03T21:34:07.105Z,49.16
2022-08-03T21:37:11.859Z,49.21
2022-08-03T21:40:17.993Z,49.58
2022-08-03T21:43:21.541Z,49.93
2022-08-03T21:46:26.726Z,50.03
2022-08-03T21:49:52.010Z,49.64
2022-08-03T21:52:57.307Z,49.45
2022-08-03T21:56:11.423Z,50.32
2022-08-03T21:59:19.335Z,51.10
2022-08-03T22:02:27.440Z,50.70
2022-08-03T22:05:43.660Z,51.19
2022-08-03T22:08:52.711Z,51.00
2022-08-03T22:11:55.537Z,50.91
2022-08-03T22:15:01.925Z,51.02
2022-08-03T22:18:06.418Z,51.24
2022-08-03T22:21:14.125Z,51.35
2022-08-03T22:24:19.745Z,51.96
2022-08-03T22:27:31.195Z,52.56
2022-08-03T22:30:35.227Z,52.99
2022-08-03T22:33:38.481Z,53.62
2022-08-03T22:36:42.305Z,54.40
2022-08-03T22:39:45.112Z,55.43
2022-08-03T22:42:51.934Z,56.27
2022-08-03T22:46:09.616Z,57.31
2022-08-03T22:49:16.410Z,58.17
2022-08-03T22:52:20.252Z,59.68
2022-08-03T22:55:24.732Z,60.55
2022-08-03T22:58:27.842Z,60.89
2022-08-03T23:01:37.105Z,62.20
2022-08-03T23:04:41.357Z,62.37
2022-08-03T23:07:45.689Z,62.73
2022-08-03T23:10:50.209Z,63.13
2022-08-03T23:13:55.464Z,61.78
2022-08-03T23:17:03.294Z,57.76
2022-08-03T23:20:08.919Z,58.09
2022-08-03T23:23:11.910Z,59.78
2022-08-03T23:26:17.528Z,60.49
2022-08-03T23:29:21.744Z,60.17
2022-08-03T23:32:26.700Z,59.99
2022-08-03T23:36:18.705Z,60.54
2022-08-03T23:39:12.449Z,60.92
2022-08-03T23:42:18.213Z,61.63
2022-08-03T23:45:21.055Z,61.88
2022-08-03T23:48:24.780Z,61.51
2022-08-03T23:52:03.255Z,61.93
2022-08-03T23:55:24.464Z,62.75
2022-08-03T23:58:48.506Z,63.65
